createdAt,value
2022-09-20T00:01:13.995Z,102005.28
2022-09-20T00:03:43.386Z,102006.13
2022-09-20T00:06:12.791Z,102005.28
2022-09-20T00:08:40.913Z,102000.03
2022-09-20T00:11:11.538Z,102002.69
2022-09-20T00:13:40.446Z,102001.81
2022-09-20T00:16:11.284Z,102003.63
2022-09-20T00:18:38.319Z,102000.97
2022-09-20T00:21:05.695Z,102000.03
2022-09-20T00:23:33.308Z,102002.75
2022-09-20T00:26:04.867Z,102005.41
2022-09-20T00:28:32.912Z,101999.28
2022-09-20T00:30:59.737Z,102004.56
2022-09-20T00:33:49.776Z,102006.44
2022-09-20T00:36:16.873Z,102005.56
2022-09-20T00:38:43.697Z,102007.34
2022-09-20T00:41:11.283Z,102010.00
2022-09-20T00:43:44.110Z,102008.28
2022-09-20T00:46:43.161Z,102007.44
2022-09-20T00:49:21.000Z,102026.03
2022-09-20T00:51:53.158Z,102017.19
2022-09-20T00:54:20.928Z,102019.91
2022-09-20T00:56:48.923Z,102025.22
2022-09-20T00:59:38.948Z,102024.31
2022-09-20T01:02:05.821Z,102021.72
2022-09-20T01:04:35.858Z,102023.50
2022-09-20T01:07:05.959Z,102017.34
2022-09-20T01:09:32.812Z,102014.69
2022-09-20T01:12:04.032Z,102018.19
2022-09-20T01:14:31.048Z,102020.91
2022-09-20T01:17:02.879Z,102026.22
2022-09-20T01:19:46.304Z,102024.53
2022-09-20T01:22:35.551Z,102030.66
2022-09-20T01:25:39.745Z,102031.53
2022-09-20T01:28:06.820Z,102030.75
2022-09-20T01:31:02.189Z,102022.78
2022-09-20T01:33:40.681Z,102024.66
2022-09-20T01:36:11.861Z,102025.53
2022-09-20T01:38:48.248Z,102026.53
2022-09-20T01:41:17.681Z,102025.66
2022-09-20T01:43:58.068Z,102023.06
2022-09-20T01:46:36.433Z,102029.97
2022-09-20T01:49:29.821Z,102033.63
2022-09-20T01:52:23.973Z,102026.53
2022-09-20T01:55:25.880Z,102020.41
2022-09-20T01:58:34.811Z,102023.94
2022-09-20T02:01:20.448Z,102027.44
2022-09-20T02:04:02.392Z,102025.72
2022-09-20T02:06:41.462Z,102023.06
2022-09-20T02:09:11.329Z,102023.06
2022-09-20T02:12:15.101Z,102013.38
2022-09-20T02:14:50.736Z,102012.56
2022-09-20T02:17:22.319Z,102013.53
2022-09-20T02:19:59.746Z,102007.25
2022-09-20T02:23:00.702Z,101994.94
2022-09-20T02:25:42.884Z,102008.25
2022-09-20T02:28:38.609Z,101998.50
2022-09-20T02:31:33.525Z,101995.94
2022-09-20T02:34:21.647Z,102002.94
2022-09-20T02:37:03.697Z,101999.59
2022-09-20T02:39:59.666Z,101994.19
2022-09-20T02:42:52.851Z,101995.97
2022-09-20T02:45:59.118Z,101995.06
2022-09-20T02:48:42.978Z,101995.19
2022-09-20T02:51:18.114Z,101989.88
2022-09-20T02:54:06.696Z,101982.00
2022-09-20T02:56:59.433Z,101993.47
2022-09-20T03:00:01.525Z,101989.00
2022-09-20T03:02:57.872Z,101986.44
2022-09-20T03:06:03.160Z,101991.91
2022-09-20T03:08:54.805Z,101983.00
2022-09-20T03:11:31.036Z,101985.72
2022-09-20T03:14:03.595Z,101983.91
2022-09-20T03:16:48.710Z,101989.25
2022-09-20T03:19:40.181Z,101975.94
2022-09-20T03:22:34.575Z,101979.53
2022-09-20T03:25:39.742Z,101971.66
2022-09-20T03:28:21.786Z,101980.47
2022-09-20T03:31:21.167Z,101976.03
2022-09-20T03:34:12.119Z,101971.66
2022-09-20T03:36:52.306Z,101969.84
2022-09-20T03:39:34.537Z,101974.31
2022-09-20T03:42:30.762Z,101962.03
2022-09-20T03:45:35.591Z,101963.75
2022-09-20T03:48:34.501Z,101957.50
2022-09-20T03:51:08.968Z,101957.50
2022-09-20T03:54:23.335Z,101959.28
2022-09-20T03:57:06.660Z,101963.75
2022-09-20T04:00:14.934Z,101962.91
2022-09-20T04:03:03.367Z,101962.91
2022-09-20T04:06:02.829Z,101956.72
2022-09-20T04:09:14.080Z,101960.28
2022-09-20T04:12:18.951Z,101963.91
2022-09-20T04:15:10.183Z,101968.34
2022-09-20T04:17:39.974Z,101964.81
2022-09-20T04:20:24.180Z,101963.94
2022-09-20T04:22:55.503Z,101967.47
2022-09-20T04:25:30.233Z,101963.09
2022-09-20T04:28:17.271Z,101971.06
2022-09-20T04:30:44.491Z,101972.88
2022-09-20T04:33:21.228Z,101973.72
2022-09-20T04:36:18.794Z,101980.84
2022-09-20T04:38:53.512Z,101970.25
2022-09-20T04:41:54.156Z,101984.41
2022-09-20T04:44:49.232Z,101977.38
2022-09-20T04:47:25.675Z,101985.34
2022-09-20T04:50:16.775Z,101979.97
2022-09-20T04:53:15.179Z,101981.84
2022-09-20T04:55:57.366Z,101979.97
2022-09-20T04:58:36.577Z,101974.78
2022-09-20T05:01:17.144Z,101980.88
2022-09-20T05:03:59.187Z,101977.31
2022-09-20T05:07:08.038Z,101981.66
2022-09-20T05:09:52.984Z,101975.34
2022-09-20T05:12:28.571Z,101976.22
2022-09-20T05:15:11.503Z,101977.03
2022-09-20T05:17:45.046Z,101976.09
2022-09-20T05:20:47.004Z,101976.88
2022-09-20T05:24:09.573Z,101972.38
2022-09-20T05:26:51.896Z,101968.78
2022-09-20T05:29:29.183Z,101967.84
2022-09-20T05:32:24.200Z,101965.09
2022-09-20T05:35:17.917Z,101965.97
2022-09-20T05:37:47.398Z,101971.22
2022-09-20T05:40:14.279Z,101965.94
2022-09-20T05:43:11.616Z,101980.00
2022-09-20T05:46:22.922Z,101987.88
2022-09-20T05:49:25.252Z,101975.47
2022-09-20T05:52:19.797Z,101992.28
2022-09-20T05:54:52.439Z,101988.75
2022-09-20T05:58:01.117Z,101984.28
2022-09-20T06:00:36.267Z,101980.69
2022-09-20T06:03:11.813Z,101979.84
2022-09-20T06:06:06.189Z,101984.28
2022-09-20T06:08:43.792Z,101989.63
2022-09-20T06:11:46.495Z,101995.78
2022-09-20T06:14:16.606Z,101987.59
2022-09-20T06:16:59.591Z,101984.84
2022-09-20T06:19:26.820Z,101985.72
2022-09-20T06:22:03.629Z,101986.50
2022-09-20T06:24:59.354Z,101980.28
2022-09-20T06:27:31.530Z,101982.00
2022-09-20T06:30:02.446Z,101976.25
2022-09-20T06:32:29.384Z,101979.03
2022-09-20T06:34:56.439Z,101984.56
2022-09-20T06:38:08.530Z,101987.44
2022-09-20T06:41:07.563Z,101992.03
2022-09-20T06:43:37.370Z,101990.03
2022-09-20T06:46:04.350Z,101986.44
2022-09-20T06:48:31.808Z,101990.66
2022-09-20T06:50:59.194Z,101987.09
2022-09-20T06:53:30.999Z,101995.94
2022-09-20T06:55:58.493Z,101996.63
2022-09-20T06:58:25.549Z,101995.84
2022-09-20T07:00:53.787Z,101999.22
2022-09-20T07:03:20.819Z,102003.53
2022-09-20T07:05:49.029Z,101999.09
2022-09-20T07:08:17.152Z,102005.97
2022-09-20T07:10:44.357Z,102005.09
2022-09-20T07:13:13.991Z,102006.84
2022-09-20T07:15:41.175Z,102014.72
2022-09-20T07:18:08.582Z,102007.72
2022-09-20T07:20:36.109Z,102007.63
2022-09-20T07:23:03.156Z,102011.16
2022-09-20T07:25:31.862Z,102006.72
2022-09-20T07:27:58.899Z,102010.16
2022-09-20T07:30:26.285Z,102001.38
2022-09-20T07:32:53.234Z,102002.97
2022-09-20T07:35:20.449Z,102004.91
2022-09-20T07:37:48.161Z,102002.31
2022-09-20T07:40:15.209Z,102009.38
2022-09-20T07:42:42.336Z,102013.75
2022-09-20T07:45:09.767Z,102012.88
2022-09-20T07:47:36.672Z,102014.59
2022-09-20T07:50:04.512Z,102004.84
2022-09-20T07:52:31.533Z,102014.44
2022-09-20T07:54:58.634Z,102010.94
2022-09-20T07:57:26.251Z,102013.59
2022-09-20T07:59:53.171Z,102002.03
2022-09-20T08:02:20.387Z,102001.94
2022-09-20T08:04:50.182Z,102005.56
2022-09-20T08:07:17.146Z,102008.13
2022-09-20T08:09:44.768Z,102010.78
2022-09-20T08:15:01.801Z,102008.94
2022-09-20T08:17:28.780Z,102012.38
2022-09-20T08:19:55.743Z,102000.88
2022-09-20T08:22:23.503Z,102004.41
2022-09-20T08:24:52.151Z,102010.59
2022-09-20T08:27:19.289Z,102003.63
2022-09-20T08:29:46.154Z,102005.41
2022-09-20T08:32:13.137Z,102010.59
2022-09-20T08:34:41.022Z,102018.47
2022-09-20T08:37:08.050Z,102012.31
2022-09-20T08:40:05.176Z,102012.31
2022-09-20T08:42:39.107Z,102018.47
2022-09-20T08:45:23.407Z,102004.28
2022-09-20T08:48:05.971Z,102007.56
2022-09-20T08:50:34.637Z,102018.22
2022-09-20T08:53:05.994Z,102011.94
2022-09-20T08:55:37.736Z,102012.78
2022-09-20T08:58:08.819Z,102012.78
2022-09-20T09:00:39.086Z,102014.50
2022-09-20T09:03:12.131Z,102006.47
2022-09-20T09:05:53.301Z,102012.59
2022-09-20T09:08:22.407Z,102010.78
2022-09-20T09:10:55.065Z,102012.47
2022-09-20T09:13:28.906Z,102015.06
2022-09-20T09:16:05.894Z,102013.19
2022-09-20T09:18:37.069Z,102018.38
2022-09-20T09:21:06.336Z,102027.13
2022-09-20T09:23:41.729Z,102017.38
2022-09-20T09:26:23.306Z,102027.00
2022-09-20T09:29:14.621Z,102024.31
2022-09-20T09:31:41.565Z,102034.88
2022-09-20T09:34:30.104Z,102034.88
2022-09-20T09:36:58.400Z,102037.53
2022-09-20T09:39:28.211Z,102027.78
2022-09-20T09:41:55.303Z,102022.53
2022-09-20T09:44:30.516Z,102025.97
2022-09-20T09:46:58.079Z,102025.97
2022-09-20T09:49:36.552Z,102031.28
2022-09-20T09:52:24.893Z,102028.63
2022-09-20T09:54:55.450Z,102028.63
2022-09-20T09:57:33.521Z,102028.63
2022-09-20T10:00:22.853Z,102024.25
2022-09-20T10:03:01.861Z,102018.94
2022-09-20T10:05:33.262Z,102018.94
2022-09-20T10:08:09.983Z,102023.41
2022-09-20T10:10:41.728Z,102018.94
2022-09-20T10:13:51.226Z,102029.56
2022-09-20T10:16:30.333Z,102033.16
2022-09-20T10:19:19.432Z,102034.03
2022-09-20T10:22:05.815Z,102033.16
2022-09-20T10:24:59.845Z,102031.38
2022-09-20T10:27:38.934Z,102034.03
2022-09-20T10:30:22.865Z,102030.44
2022-09-20T10:33:01.787Z,102028.63
2022-09-20T10:35:47.282Z,102029.56
2022-09-20T10:38:23.783Z,102022.41
2022-09-20T10:41:30.302Z,102025.97
2022-09-20T10:44:33.606Z,102025.97
2022-09-20T10:47:09.146Z,102028.63
2022-09-20T10:49:50.752Z,102024.19
2022-09-20T10:52:39.732Z,102017.91
2022-09-20T10:55:34.399Z,102022.41
2022-09-20T10:58:31.348Z,102013.47
2022-09-20T11:01:04.189Z,102013.41
2022-09-20T11:03:49.349Z,102011.59
2022-09-20T11:06:22.336Z,102015.06
2022-09-20T11:08:56.017Z,102007.84
2022-09-20T11:11:41.858Z,102009.41
2022-09-20T11:14:19.565Z,102010.13
2022-09-20T11:17:01.810Z,102002.25
2022-09-20T11:19:40.629Z,102004.75
2022-09-20T11:22:13.574Z,102001.16
2022-09-20T11:24:43.309Z,102000.22
2022-09-20T11:27:21.292Z,102000.06
2022-09-20T11:30:06.482Z,101995.69
2022-09-20T11:32:42.549Z,101997.72
2022-09-20T11:35:12.316Z,102000.13
2022-09-20T11:37:47.083Z,101999.25
2022-09-20T11:40:20.063Z,101999.13
2022-09-20T11:42:48.489Z,102005.25
2022-09-20T11:45:15.838Z,102006.94
2022-09-20T11:47:54.838Z,102001.63
2022-09-20T11:50:40.866Z,102005.06
2022-09-20T11:53:17.930Z,101997.91
2022-09-20T11:56:21.932Z,101998.72
2022-09-20T11:58:52.311Z,101998.69
2022-09-20T12:01:36.680Z,101991.56
2022-09-20T12:04:32.274Z,101995.88
2022-09-20T12:07:10.484Z,101986.94
2022-09-20T12:09:43.360Z,101984.13
2022-09-20T12:12:38.041Z,101983.03
2022-09-20T12:15:08.711Z,101982.03
2022-09-20T12:17:47.811Z,101984.53
2022-09-20T12:20:33.348Z,101987.00
2022-09-20T12:23:41.171Z,101978.88
2022-09-20T12:26:14.294Z,101976.06
2022-09-20T12:28:42.380Z,101980.38
2022-09-20T12:31:32.174Z,101979.34
2022-09-20T12:34:11.185Z,101973.00
2022-09-20T12:36:39.486Z,101973.81
2022-09-20T12:39:12.062Z,101967.88
2022-09-20T12:41:50.890Z,101976.38
2022-09-20T12:44:37.322Z,101965.63
2022-09-20T12:47:25.533Z,101962.03
2022-09-20T12:50:16.635Z,101964.66
2022-09-20T12:53:04.286Z,101965.50
2022-09-20T12:55:46.500Z,101963.47
2022-09-20T12:58:15.956Z,101959.81
2022-09-20T13:00:59.468Z,101961.53
2022-09-20T13:03:48.681Z,101955.44
2022-09-20T13:06:16.747Z,101956.28
2022-09-20T13:08:49.809Z,101953.47
2022-09-20T13:11:39.941Z,101952.50
2022-09-20T13:14:11.444Z,101953.28
2022-09-20T13:16:41.358Z,101947.03
2022-09-20T13:19:17.782Z,101937.25
2022-09-20T13:21:57.320Z,101936.38
2022-09-20T13:24:37.300Z,101938.13
2022-09-20T13:27:19.384Z,101938.13
2022-09-20T13:29:47.287Z,101939.81
2022-09-20T13:32:31.504Z,101939.03
2022-09-20T13:35:10.574Z,101938.94
2022-09-20T13:37:53.191Z,101933.72
2022-09-20T13:40:32.376Z,101937.25
2022-09-20T13:43:22.520Z,101932.06
2022-09-20T13:45:54.150Z,101927.63
2022-09-20T13:48:28.274Z,101934.84
2022-09-20T13:50:56.301Z,101939.19
2022-09-20T13:53:40.506Z,101936.69
2022-09-20T13:56:29.075Z,101941.09
2022-09-20T13:58:59.294Z,101938.44
2022-09-20T14:01:35.011Z,101942.81
2022-09-20T14:04:07.794Z,101933.97
2022-09-20T14:06:35.943Z,101938.44
2022-09-20T14:09:11.031Z,101942.81
2022-09-20T14:11:39.734Z,101939.19
2022-09-20T14:14:08.256Z,101928.66
2022-09-20T14:16:40.136Z,101931.22
2022-09-20T14:19:08.543Z,101936.53
2022-09-20T14:21:37.579Z,101935.75
2022-09-20T14:24:14.107Z,101932.94
2022-09-20T14:26:42.907Z,101924.00
2022-09-20T14:29:34.816Z,101924.09
2022-09-20T14:32:20.078Z,101921.34
2022-09-20T14:34:59.093Z,101918.66
2022-09-20T14:37:43.766Z,101917.91
2022-09-20T14:40:47.452Z,101925.88
2022-09-20T14:43:32.664Z,101920.56
2022-09-20T14:46:03.638Z,101926.75
2022-09-20T14:48:30.392Z,101922.28
2022-09-20T14:51:16.523Z,101922.28
2022-09-20T14:53:49.273Z,101923.16
2022-09-20T14:56:18.154Z,101921.44
2022-09-20T14:59:14.074Z,101911.72
2022-09-20T15:01:45.311Z,101914.31
2022-09-20T15:04:24.260Z,101910.88
2022-09-20T15:06:52.244Z,101907.25
2022-09-20T15:09:20.896Z,101899.41
2022-09-20T15:11:59.132Z,101904.69
2022-09-20T15:14:26.122Z,101901.25
2022-09-20T15:16:53.052Z,101897.72
2022-09-20T15:19:20.003Z,101898.59
2022-09-20T15:21:47.039Z,101903.03
2022-09-20T15:24:14.136Z,101897.72
2022-09-20T15:26:41.142Z,101897.56
2022-09-20T15:29:14.349Z,101895.81
2022-09-20T15:31:41.363Z,101887.84
2022-09-20T15:34:08.646Z,101886.91
2022-09-20T15:36:36.904Z,101893.94
2022-09-20T15:39:05.283Z,101888.78
2022-09-20T15:41:32.723Z,101887.75
2022-09-20T15:43:59.968Z,101889.56
2022-09-20T15:46:27.486Z,101883.28
2022-09-20T15:48:55.289Z,101891.28
2022-09-20T15:51:22.890Z,101886.91
2022-09-20T15:54:01.780Z,101883.38
2022-09-20T15:56:31.905Z,101875.41
2022-09-20T15:59:06.851Z,101887.75
2022-09-20T16:01:44.948Z,101889.56
2022-09-20T16:04:20.051Z,101891.38
2022-09-20T16:06:49.797Z,101888.78
2022-09-20T16:09:17.156Z,101890.50
2022-09-20T16:11:44.106Z,101886.19
2022-09-20T16:14:10.982Z,101888.72
2022-09-20T16:16:40.667Z,101891.38
2022-09-20T16:19:24.054Z,101896.75
2022-09-20T16:21:58.890Z,101898.66
2022-09-20T16:24:28.911Z,101893.41
2022-09-20T16:26:56.529Z,101904.91
2022-09-20T16:29:25.445Z,101902.19
2022-09-20T16:31:54.333Z,101902.19
2022-09-20T16:34:22.634Z,101900.44
2022-09-20T16:36:51.772Z,101904.06
2022-09-20T16:39:20.555Z,101905.78
2022-09-20T16:41:49.108Z,101899.78
2022-09-20T16:44:16.379Z,101905.09
2022-09-20T16:46:44.841Z,101912.28
2022-09-20T16:49:13.768Z,101907.06
2022-09-20T16:51:42.791Z,101906.31
2022-09-20T16:54:12.547Z,101909.75
2022-09-20T16:56:42.553Z,101901.75
2022-09-20T16:59:11.116Z,101907.25
2022-09-20T17:01:39.167Z,101902.88
2022-09-20T17:04:07.096Z,101908.09
2022-09-20T17:06:38.691Z,101910.59
2022-09-20T17:09:07.197Z,101912.41
2022-09-20T17:11:37.177Z,101916.03
2022-09-20T17:14:05.277Z,101915.16
2022-09-20T17:16:34.793Z,101924.06
2022-09-20T17:19:07.617Z,101921.34
2022-09-20T17:21:36.814Z,101919.63
2022-09-20T17:24:07.549Z,101916.03
2022-09-20T17:26:45.111Z,101921.34
2022-09-20T17:29:17.833Z,101926.72
2022-09-20T17:31:55.107Z,101926.81
2022-09-20T17:34:23.282Z,101930.34
2022-09-20T17:36:54.390Z,101933.03
2022-09-20T17:39:21.713Z,101932.16
2022-09-20T17:41:51.888Z,101925.09
2022-09-20T17:44:19.927Z,101938.41
2022-09-20T17:46:50.236Z,101936.59
2022-09-20T17:49:22.258Z,101942.03
2022-09-20T17:51:51.776Z,101931.28
2022-09-20T17:54:19.663Z,101944.69
2022-09-20T17:56:51.484Z,101940.22
2022-09-20T17:59:19.645Z,101936.69
2022-09-20T18:01:49.058Z,101947.34
2022-09-20T18:04:16.390Z,101943.72
2022-09-20T18:06:49.103Z,101941.25
2022-09-20T18:09:18.931Z,101937.63
2022-09-20T18:11:49.879Z,101940.38
2022-09-20T18:14:26.421Z,101942.03
2022-09-20T18:17:00.319Z,101938.50
2022-09-20T18:19:37.008Z,101945.63
2022-09-20T18:22:04.587Z,101947.34
2022-09-20T18:24:32.102Z,101949.16
2022-09-20T18:27:01.170Z,101957.03
2022-09-20T18:29:29.643Z,101956.25
2022-09-20T18:31:57.336Z,101951.91
2022-09-20T18:34:27.067Z,101964.09
2022-09-20T18:36:56.411Z,101963.31
2022-09-20T18:39:41.496Z,101965.97
2022-09-20T18:42:09.494Z,101965.13
2022-09-20T18:44:37.265Z,101965.03
2022-09-20T18:47:06.455Z,101954.22
2022-09-20T18:49:33.789Z,101958.63
2022-09-20T18:52:01.188Z,101962.84
2022-09-20T18:54:33.817Z,101957.47
2022-09-20T18:57:03.542Z,101965.50
2022-09-20T18:59:31.492Z,101961.94
2022-09-20T19:02:04.745Z,101964.50
2022-09-20T19:05:07.143Z,101958.34
2022-09-20T19:07:35.425Z,101961.78
2022-09-20T19:10:38.198Z,101960.66
2022-09-20T19:13:24.825Z,101965.97
2022-09-20T19:16:12.326Z,101967.47
2022-09-20T19:19:17.328Z,101964.59
2022-09-20T19:21:53.077Z,101968.88
2022-09-20T19:24:36.454Z,101967.16
2022-09-20T19:27:03.897Z,101971.69
2022-09-20T19:29:31.540Z,101970.84
2022-09-20T19:32:01.358Z,101971.59
2022-09-20T19:34:32.752Z,101975.13
2022-09-20T19:37:25.200Z,101975.22
2022-09-20T19:40:15.409Z,101973.34
2022-09-20T19:43:05.282Z,101968.94
2022-09-20T19:45:59.055Z,101979.53
2022-09-20T19:48:40.668Z,101982.19
2022-09-20T19:51:12.841Z,101976.88
2022-09-20T19:53:40.821Z,101991.03
2022-09-20T19:56:25.050Z,101992.91
2022-09-20T19:58:53.713Z,101980.56
2022-09-20T20:01:22.853Z,101980.38
2022-09-20T20:03:51.307Z,101982.19
2022-09-20T20:06:37.090Z,101983.13
2022-09-20T20:09:30.049Z,101986.72
2022-09-20T20:12:15.365Z,101977.09
2022-09-20T20:15:19.996Z,101988.44
2022-09-20T20:18:03.800Z,101991.13
2022-09-20T20:20:45.696Z,101992.91
2022-09-20T20:23:45.066Z,101992.91
2022-09-20T20:26:21.316Z,101995.50
2022-09-20T20:28:48.724Z,101993.88
2022-09-20T20:31:15.819Z,101983.28
2022-09-20T20:33:44.183Z,101997.47
2022-09-20T20:36:12.333Z,101981.66
2022-09-20T20:38:41.600Z,101995.81
2022-09-20T20:41:12.966Z,102000.28
2022-09-20T20:43:44.349Z,101984.41
2022-09-20T20:46:19.169Z,101983.59
2022-09-20T20:48:48.267Z,101991.69
2022-09-20T20:51:20.936Z,101993.56
2022-09-20T20:53:53.830Z,101995.50
2022-09-20T20:56:27.366Z,101989.31
2022-09-20T20:58:55.951Z,101994.75
2022-09-20T21:01:26.881Z,101987.75
2022-09-20T21:03:56.919Z,101995.72
2022-09-20T21:06:26.953Z,101991.47
2022-09-20T21:08:54.103Z,101988.91
2022-09-20T21:11:23.946Z,101986.31
2022-09-20T21:13:52.721Z,101986.41
2022-09-20T21:16:23.193Z,101988.28
2022-09-20T21:18:51.460Z,101983.03
2022-09-20T21:21:22.585Z,101997.19
2022-09-20T21:23:51.158Z,101990.25
2022-09-20T21:26:20.002Z,101993.81
2022-09-20T21:28:51.392Z,101991.25
2022-09-20T21:31:20.454Z,101986.03
2022-09-20T21:33:47.652Z,101984.28
2022-09-20T21:36:17.546Z,101973.81
2022-09-20T21:38:45.784Z,101981.78
2022-09-20T21:41:16.917Z,101968.47
2022-09-20T21:43:44.914Z,101981.00
2022-09-20T21:46:23.804Z,101970.38
2022-09-20T21:48:51.100Z,101973.94
2022-09-20T21:51:20.664Z,101974.03
2022-09-20T21:53:49.786Z,101975.84
2022-09-20T21:56:18.009Z,101983.03
2022-09-20T21:58:47.380Z,101985.69
2022-09-20T22:01:16.927Z,101981.31
2022-09-20T22:03:46.964Z,101990.31
2022-09-20T22:06:22.457Z,101992.09
2022-09-20T22:09:01.733Z,101985.91
2022-09-20T22:11:49.016Z,101985.13
2022-09-20T22:14:18.986Z,101985.13
2022-09-20T22:16:47.257Z,101991.41
2022-09-20T22:19:17.461Z,101979.13
2022-09-20T22:21:47.446Z,101977.31
2022-09-20T22:24:16.133Z,101984.50
2022-09-20T22:26:46.385Z,101974.72
2022-09-20T22:29:14.164Z,101976.53
2022-09-20T22:31:45.784Z,101982.88
2022-09-20T22:34:18.313Z,101989.91
2022-09-20T22:36:46.138Z,101987.25
2022-09-20T22:39:15.643Z,101983.72
2022-09-20T22:41:44.003Z,101981.13
2022-09-20T22:44:11.662Z,101977.63
2022-09-20T22:46:39.349Z,101967.06
2022-09-20T22:49:07.114Z,101965.41
2022-09-20T22:51:34.270Z,101965.34
2022-09-20T22:54:06.469Z,101968.00
2022-09-20T22:56:33.936Z,101959.16
2022-09-20T22:59:13.554Z,101960.94
2022-09-20T23:01:43.093Z,101959.22
2022-09-20T23:04:15.837Z,101961.00
2022-09-20T23:06:54.878Z,101955.78
2022-09-20T23:09:24.601Z,101963.75
2022-09-20T23:11:51.688Z,101957.56
2022-09-20T23:14:20.779Z,101957.66
2022-09-20T23:16:48.252Z,101954.13
2022-09-20T23:19:15.652Z,101960.31
2022-09-20T23:21:44.134Z,101954.13
2022-09-20T23:24:13.757Z,101958.59
2022-09-20T23:26:42.461Z,101955.06
2022-09-20T23:29:12.305Z,101947.19
2022-09-20T23:31:40.965Z,101948.09
2022-09-20T23:34:08.967Z,101948.19
2022-09-20T23:36:38.439Z,101948.09
2022-09-20T23:39:07.259Z,101946.41
2022-09-20T23:41:34.485Z,101949.97
2022-09-20T23:44:01.516Z,101944.66
2022-09-20T23:46:28.454Z,101941.22
2022-09-20T23:48:55.395Z,101949.19
2022-09-20T23:51:25.602Z,101942.16
2022-09-20T23:53:53.757Z,101939.50
2022-09-20T23:56:22.060Z,101945.78
2022-09-20T23:58:51.628Z,101948.44
